Galicia — ECEC — position and weather

sailwx.info

Track history (hours):
 
Tides and Currents Weather Stations Pressure Air Temp Water Temp Dewpoint Dewpoint Depression Visibility Wind Speed Wind Dir Waves Ship Positions

Galicia

Last reported at 2015-Feb-26 21:14 UTC. Time now 2015-Feb-27 04:09 UTC.
Position N 41°47' E 003°14'.

Length 149 m; draft 5.5 m.

Type: Cargo ship. MMSI: 224548000.

Date/timePositionNaut miles runAvg speedWind from/ knotsBaromVisibWave heightAir tempDewpointWater temp
2015-Feb-26 21:14N 41°47' E 003°14'1215.4
2015-Feb-26 20:29N 41°36' E 003°09'1915.1
2015-Feb-26 19:13N 41°18' E 003°00'1014.8
2015-Feb-26 18:32N 41°08' E 002°56'1515.5
2015-Feb-26 17:33N 40°54' E 002°49'1515.2
2015-Feb-26 16:33N 40°39' E 002°42'1515.4
2015-Feb-26 15:33N 40°25' E 002°36'1515.3
2015-Feb-26 14:33N 40°10' E 002°29'1515.1
2015-Feb-26 13:33N 39°56' E 002°22'1615.0
2015-Feb-26 12:28N 39°41' E 002°15'1414.9
2015-Feb-26 11:33N 39°28' E 002°08'1515.4
2015-Feb-26 10:33N 39°14' E 002°01'1211.9
2015-Feb-26 09:33N 39°03' E 001°55'1010.1
2015-Feb-26 08:33N 38°54' E 001°50'1010.2
2015-Feb-26 07:32N 38°44' E 001°44'  
2015-Feb-23 08:33N 35°59' W 005°16'269 6.0
2015-Feb-21 11:27N 38°23' W 010°01'2015.5
2015-Feb-21 10:11N 38°42' W 010°06'1515.2
2015-Feb-21 09:13N 38°57' W 010°05'1415.6
2015-Feb-21 08:19N 39°10' W 010°00'  
2015-Feb-18 07:31N 50°33' E 000°10'1313.6
2015-Feb-18 06:33N 50°37' E 000°30'1515.3
2015-Feb-18 05:34N 50°45' E 000°50'1716.8
2015-Feb-18 04:32N 50°56' E 001°11'1616.7
2015-Feb-18 03:34N 51°06' E 001°31'1514.8
2015-Feb-18 02:34N 51°16' E 001°48'1212.4
2015-Feb-18 01:33N 51°24' E 002°03'1513.7
2015-Feb-18 00:30N 51°22' E 002°26'1112.0
2015-Feb-17 23:33N 51°22' E 002°44'1413.7
2015-Feb-17 22:32N 51°22' E 003°06'5 3.8
2015-Feb-17 21:16N 51°20' E 003°13'2 2.1
2015-Feb-17 20:32N 51°19' E 003°14'0 0.0
2015-Feb-17 19:32N 51°19' E 003°14'0 0.0
2015-Feb-17 17:32N 51°19' E 003°14'0 0.0
2015-Feb-17 16:32N 51°19' E 003°14'0 0.0
2015-Feb-17 15:32N 51°18' E 003°14'0 0.0
2015-Feb-17 14:32N 51°19' E 003°14'0 0.0
2015-Feb-17 13:32N 51°19' E 003°14'0 0.0
2015-Feb-17 12:32N 51°19' E 003°14'0 0.0
2015-Feb-17 11:32N 51°19' E 003°14'2 1.6
2015-Feb-17 10:32N 51°20' E 003°13'3 2.6
2015-Feb-17 09:33N 51°22' E 003°11'1615.7
2015-Feb-17 08:33N 51°22' E 002°46'1813.2
2015-Feb-17 07:10N 51°18' E 002°17'813.8
2015-Feb-17 06:34N 51°13' E 002°06'1413.5
2015-Feb-17 05:33N 51°06' E 001°47'1312.9
2015-Feb-17 04:34N 50°57' E 001°33'  
Track history (hours):
 
Tides and Currents Weather Stations Pressure Air Temp Water Temp Dewpoint Dewpoint Depression Visibility Wind Speed Wind Dir Waves Ship Positions

Galicia

Last reported at 2015-Feb-26 21:14 UTC. Time now 2015-Feb-27 04:09 UTC.
Position N 41°47' E 003°14'.

Length 149 m; draft 5.5 m.

Type: Cargo ship. MMSI: 224548000.

Date/timePositionNaut miles runAvg speedWind from/ knotsBaromVisibWave heightAir tempDewpointWater temp
2015-Feb-26 21:14N 41°47' E 003°14'1215.4
2015-Feb-26 20:29N 41°36' E 003°09'1915.1
2015-Feb-26 19:13N 41°18' E 003°00'1014.8
2015-Feb-26 18:32N 41°08' E 002°56'1515.5
2015-Feb-26 17:33N 40°54' E 002°49'1515.2
2015-Feb-26 16:33N 40°39' E 002°42'1515.4
2015-Feb-26 15:33N 40°25' E 002°36'1515.3
2015-Feb-26 14:33N 40°10' E 002°29'1515.1
2015-Feb-26 13:33N 39°56' E 002°22'1615.0
2015-Feb-26 12:28N 39°41' E 002°15'1414.9
2015-Feb-26 11:33N 39°28' E 002°08'1515.4
2015-Feb-26 10:33N 39°14' E 002°01'1211.9
2015-Feb-26 09:33N 39°03' E 001°55'1010.1
2015-Feb-26 08:33N 38°54' E 001°50'1010.2
2015-Feb-26 07:32N 38°44' E 001°44'  
2015-Feb-23 08:33N 35°59' W 005°16'269 6.0
2015-Feb-21 11:27N 38°23' W 010°01'2015.5
2015-Feb-21 10:11N 38°42' W 010°06'1515.2
2015-Feb-21 09:13N 38°57' W 010°05'1415.6
2015-Feb-21 08:19N 39°10' W 010°00'  
2015-Feb-18 07:31N 50°33' E 000°10'1313.6
2015-Feb-18 06:33N 50°37' E 000°30'1515.3
2015-Feb-18 05:34N 50°45' E 000°50'1716.8
2015-Feb-18 04:32N 50°56' E 001°11'1616.7
2015-Feb-18 03:34N 51°06' E 001°31'1514.8
2015-Feb-18 02:34N 51°16' E 001°48'1212.4
2015-Feb-18 01:33N 51°24' E 002°03'1513.7
2015-Feb-18 00:30N 51°22' E 002°26'1112.0
2015-Feb-17 23:33N 51°22' E 002°44'1413.7
2015-Feb-17 22:32N 51°22' E 003°06'5 3.8
2015-Feb-17 21:16N 51°20' E 003°13'2 2.1
2015-Feb-17 20:32N 51°19' E 003°14'0 0.0
2015-Feb-17 19:32N 51°19' E 003°14'0 0.0
2015-Feb-17 17:32N 51°19' E 003°14'0 0.0
2015-Feb-17 16:32N 51°19' E 003°14'0 0.0
2015-Feb-17 15:32N 51°18' E 003°14'0 0.0
2015-Feb-17 14:32N 51°19' E 003°14'0 0.0
2015-Feb-17 13:32N 51°19' E 003°14'0 0.0
2015-Feb-17 12:32N 51°19' E 003°14'0 0.0
2015-Feb-17 11:32N 51°19' E 003°14'2 1.6
2015-Feb-17 10:32N 51°20' E 003°13'3 2.6
2015-Feb-17 09:33N 51°22' E 003°11'1615.7
2015-Feb-17 08:33N 51°22' E 002°46'1813.2
2015-Feb-17 07:10N 51°18' E 002°17'813.8
2015-Feb-17 06:34N 51°13' E 002°06'1413.5
2015-Feb-17 05:33N 51°06' E 001°47'1312.9
2015-Feb-17 04:34N 50°57' E 001°33'  

Dump ship's entire track history